sensor_id;sensor_type;location;lat;lon;timestamp;temperature;humidity
7704;DHT22;3894;49.700;10.770;2022-07-04T00:00:27;18.80;99.90
7704;DHT22;3894;49.700;10.770;2022-07-04T00:02:54;18.90;99.90
7704;DHT22;3894;49.700;10.770;2022-07-04T00:05:19;19.00;99.90
7704;DHT22;3894;49.700;10.770;2022-07-04T00:07:47;19.00;99.90
7704;DHT22;3894;49.700;10.770;2022-07-04T00:10:15;19.10;99.90
7704;DHT22;3894;49.700;10.770;2022-07-04T00:12:42;18.90;99.90
7704;DHT22;3894;49.700;10.770;2022-07-04T00:15:08;18.80;99.90
7704;DHT22;3894;49.700;10.770;2022-07-04T00:17:35;18.80;99.90
7704;DHT22;3894;49.700;10.770;2022-07-04T00:20:01;18.70;99.90
7704;DHT22;3894;49.700;10.770;2022-07-04T00:22:27;18.70;99.90
7704;DHT22;3894;49.700;10.770;2022-07-04T00:24:52;18.70;99.90
7704;DHT22;3894;49.700;10.770;2022-07-04T00:27:18;18.70;99.90
7704;DHT22;3894;49.700;10.770;2022-07-04T00:29:44;18.90;99.90
7704;DHT22;3894;49.700;10.770;2022-07-04T00:32:09;19.00;99.90
7704;DHT22;3894;49.700;10.770;2022-07-04T00:34:35;19.10;99.90
7704;DHT22;3894;49.700;10.770;2022-07-04T00:37:04;19.10;99.90
7704;DHT22;3894;49.700;10.770;2022-07-04T00:39:30;19.10;99.90
7704;DHT22;3894;49.700;10.770;2022-07-04T00:41:56;19.00;99.90
7704;DHT22;3894;49.700;10.770;2022-07-04T00:44:22;19.00;99.90
7704;DHT22;3894;49.700;10.770;2022-07-04T00:46:48;19.00;99.90
7704;DHT22;3894;49.700;10.770;2022-07-04T00:49:17;19.00;99.90
7704;DHT22;3894;49.700;10.770;2022-07-04T00:51:44;18.90;99.90
7704;DHT22;3894;49.700;10.770;2022-07-04T00:54:13;18.90;99.90
7704;DHT22;3894;49.700;10.770;2022-07-04T00:56:40;18.80;99.90
7704;DHT22;3894;49.700;10.770;2022-07-04T00:59:06;18.80;99.90
7704;DHT22;3894;49.700;10.770;2022-07-04T01:01:33;18.80;99.90
7704;DHT22;3894;49.700;10.770;2022-07-04T01:04:00;18.90;99.90
7704;DHT22;3894;49.700;10.770;2022-07-04T01:06:26;18.80;99.90
7704;DHT22;3894;49.700;10.770;2022-07-04T01:08:55;18.70;99.90
7704;DHT22;3894;49.700;10.770;2022-07-04T01:11:20;18.60;99.90
7704;DHT22;3894;49.700;10.770;2022-07-04T01:13:46;18.60;99.90
7704;DHT22;3894;49.700;10.770;2022-07-04T01:16:12;18.60;99.90
7704;DHT22;3894;49.700;10.770;2022-07-04T01:18:39;18.60;99.90
7704;DHT22;3894;49.700;10.770;2022-07-04T01:21:05;18.70;99.90
7704;DHT22;3894;49.700;10.770;2022-07-04T01:23:31;18.60;99.90
7704;DHT22;3894;49.700;10.770;2022-07-04T01:26:06;18.70;99.90
7704;DHT22;3894;49.700;10.770;2022-07-04T01:28:32;18.70;99.90
7704;DHT22;3894;49.700;10.770;2022-07-04T01:30:57;18.80;99.90
7704;DHT22;3894;49.700;10.770;2022-07-04T01:33:23;18.80;99.90
7704;DHT22;3894;49.700;10.770;2022-07-04T01:35:49;18.80;99.90
7704;DHT22;3894;49.700;10.770;2022-07-04T01:38:15;18.80;99.90
7704;DHT22;3894;49.700;10.770;2022-07-04T01:40:40;18.70;99.90
7704;DHT22;3894;49.700;10.770;2022-07-04T01:43:09;18.70;99.90
7704;DHT22;3894;49.700;10.770;2022-07-04T01:45:35;18.60;99.90
7704;DHT22;3894;49.700;10.770;2022-07-04T01:48:06;18.40;99.90
7704;DHT22;3894;49.700;10.770;2022-07-04T01:50:33;18.30;99.90
7704;DHT22;3894;49.700;10.770;2022-07-04T01:52:59;18.20;99.90
7704;DHT22;3894;49.700;10.770;2022-07-04T01:55:25;18.30;99.90
7704;DHT22;3894;49.700;10.770;2022-07-04T01:57:51;18.10;99.90
7704;DHT22;3894;49.700;10.770;2022-07-04T02:00:17;17.70;99.90
7704;DHT22;3894;49.700;10.770;2022-07-04T02:03:01;17.50;99.90
7704;DHT22;3894;49.700;10.770;2022-07-04T02:05:27;17.30;99.90
7704;DHT22;3894;49.700;10.770;2022-07-04T02:07:52;17.30;99.90
7704;DHT22;3894;49.700;10.770;2022-07-04T02:10:18;17.60;99.90
7704;DHT22;3894;49.700;10.770;2022-07-04T02:12:44;17.90;99.90
7704;DHT22;3894;49.700;10.770;2022-07-04T02:15:30;17.90;99.90
7704;DHT22;3894;49.700;10.770;2022-07-04T02:17:57;17.80;99.90
7704;DHT22;3894;49.700;10.770;2022-07-04T02:20:23;17.80;99.90
7704;DHT22;3894;49.700;10.770;2022-07-04T02:22:49;17.90;99.90
7704;DHT22;3894;49.700;10.770;2022-07-04T02:25:15;18.00;99.90
7704;DHT22;3894;49.700;10.770;2022-07-04T02:27:41;18.10;99.90
7704;DHT22;3894;49.700;10.770;2022-07-04T02:30:07;18.10;99.90
7704;DHT22;3894;49.700;10.770;2022-07-04T02:32:34;18.10;99.90
7704;DHT22;3894;49.700;10.770;2022-07-04T02:35:00;18.00;99.90
7704;DHT22;3894;49.700;10.770;2022-07-04T02:37:26;17.80;99.90
7704;DHT22;3894;49.700;10.770;2022-07-04T02:39:52;17.60;99.90
7704;DHT22;3894;49.700;10.770;2022-07-04T02:42:18;17.50;99.90
7704;DHT22;3894;49.700;10.770;2022-07-04T02:44:43;17.40;99.90
7704;DHT22;3894;49.700;10.770;2022-07-04T02:47:10;17.10;99.90
7704;DHT22;3894;49.700;10.770;2022-07-04T02:49:36;16.90;99.90
7704;DHT22;3894;49.700;10.770;2022-07-04T02:52:01;16.70;99.90
7704;DHT22;3894;49.700;10.770;2022-07-04T02:54:27;16.60;99.90
7704;DHT22;3894;49.700;10.770;2022-07-04T02:56:52;16.90;99.90
7704;DHT22;3894;49.700;10.770;2022-07-04T02:59:18;17.10;99.90
7704;DHT22;3894;49.700;10.770;2022-07-04T03:01:44;17.30;99.90
7704;DHT22;3894;49.700;10.770;2022-07-04T03:04:09;17.30;99.90
7704;DHT22;3894;49.700;10.770;2022-07-04T03:06:35;17.40;99.90
7704;DHT22;3894;49.700;10.770;2022-07-04T03:09:01;17.40;99.90
7704;DHT22;3894;49.700;10.770;2022-07-04T03:11:29;17.50;99.90
7704;DHT22;3894;49.700;10.770;2022-07-04T03:13:54;17.50;99.90
7704;DHT22;3894;49.700;10.770;2022-07-04T03:16:20;17.30;99.90
7704;DHT22;3894;49.700;10.770;2022-07-04T03:18:45;16.90;99.90
7704;DHT22;3894;49.700;10.770;2022-07-04T03:21:11;16.70;99.90
7704;DHT22;3894;49.700;10.770;2022-07-04T03:23:37;16.70;99.90
7704;DHT22;3894;49.700;10.770;2022-07-04T03:26:03;16.70;99.90
7704;DHT22;3894;49.700;10.770;2022-07-04T03:28:28;16.60;99.90
7704;DHT22;3894;49.700;10.770;2022-07-04T03:30:54;16.70;99.90
7704;DHT22;3894;49.700;10.770;2022-07-04T03:33:19;16.70;99.90
7704;DHT22;3894;49.700;10.770;2022-07-04T03:35:45;16.80;99.90
7704;DHT22;3894;49.700;10.770;2022-07-04T03:38:11;16.90;99.90
7704;DHT22;3894;49.700;10.770;2022-07-04T03:40:37;16.90;99.90
7704;DHT22;3894;49.700;10.770;2022-07-04T03:43:04;16.80;99.90
7704;DHT22;3894;49.700;10.770;2022-07-04T03:45:31;16.90;99.90
7704;DHT22;3894;49.700;10.770;2022-07-04T03:47:57;17.10;99.90
7704;DHT22;3894;49.700;10.770;2022-07-04T03:50:23;17.10;99.90
7704;DHT22;3894;49.700;10.770;2022-07-04T03:52:48;17.10;99.90
7704;DHT22;3894;49.700;10.770;2022-07-04T03:55:14;17.00;99.90
7704;DHT22;3894;49.700;10.770;2022-07-04T03:57:40;17.10;99.90
7704;DHT22;3894;49.700;10.770;2022-07-04T04:00:06;17.20;99.90
7704;DHT22;3894;49.700;10.770;2022-07-04T04:02:33;17.10;99.90
7704;DHT22;3894;49.700;10.770;2022-07-04T04:04:59;17.20;99.90
7704;DHT22;3894;49.700;10.770;2022-07-04T04:07:43;17.20;99.90
7704;DHT22;3894;49.700;10.770;2022-07-04T04:10:09;17.00;99.90
7704;DHT22;3894;49.700;10.770;2022-07-04T04:12:35;17.00;99.90
7704;DHT22;3894;49.700;10.770;2022-07-04T04:15:01;17.00;99.90
7704;DHT22;3894;49.700;10.770;2022-07-04T04:17:26;17.00;99.90
7704;DHT22;3894;49.700;10.770;2022-07-04T04:19:52;17.10;99.90
7704;DHT22;3894;49.700;10.770;2022-07-04T04:22:17;17.10;99.90
7704;DHT22;3894;49.700;10.770;2022-07-04T04:24:43;17.30;99.90
7704;DHT22;3894;49.700;10.770;2022-07-04T04:27:09;17.50;99.90
7704;DHT22;3894;49.700;10.770;2022-07-04T04:29:34;17.60;99.90
7704;DHT22;3894;49.700;10.770;2022-07-04T04:32:00;17.70;99.90
7704;DHT22;3894;49.700;10.770;2022-07-04T04:34:26;17.70;99.90
7704;DHT22;3894;49.700;10.770;2022-07-04T04:36:51;17.70;99.90
7704;DHT22;3894;49.700;10.770;2022-07-04T04:39:17;17.90;99.90
7704;DHT22;3894;49.700;10.770;2022-07-04T04:41:42;18.00;99.90
7704;DHT22;3894;49.700;10.770;2022-07-04T04:44:08;18.10;99.90
7704;DHT22;3894;49.700;10.770;2022-07-04T04:46:34;18.20;99.90
7704;DHT22;3894;49.700;10.770;2022-07-04T04:48:59;18.20;99.90
7704;DHT22;3894;49.700;10.770;2022-07-04T04:51:25;18.20;99.90
7704;DHT22;3894;49.700;10.770;2022-07-04T04:53:51;18.30;99.90
7704;DHT22;3894;49.700;10.770;2022-07-04T04:56:16;18.40;99.90
7704;DHT22;3894;49.700;10.770;2022-07-04T04:58:42;18.60;99.90
7704;DHT22;3894;49.700;10.770;2022-07-04T05:01:08;18.70;99.90
7704;DHT22;3894;49.700;10.770;2022-07-04T05:03:34;18.90;99.90
7704;DHT22;3894;49.700;10.770;2022-07-04T05:06:00;19.10;99.90
7704;DHT22;3894;49.700;10.770;2022-07-04T05:08:26;19.50;99.90
7704;DHT22;3894;49.700;10.770;2022-07-04T05:10:52;19.40;99.90
7704;DHT22;3894;49.700;10.770;2022-07-04T05:13:18;19.20;99.90
7704;DHT22;3894;49.700;10.770;2022-07-04T05:15:44;19.00;99.90
7704;DHT22;3894;49.700;10.770;2022-07-04T05:18:10;19.00;99.90
7704;DHT22;3894;49.700;10.770;2022-07-04T05:20:35;19.00;99.90
7704;DHT22;3894;49.700;10.770;2022-07-04T05:23:01;19.00;99.90
7704;DHT22;3894;49.700;10.770;2022-07-04T05:25:27;19.20;99.90
7704;DHT22;3894;49.700;10.770;2022-07-04T05:27:52;19.60;99.90
7704;DHT22;3894;49.700;10.770;2022-07-04T05:30:18;19.80;99.90
7704;DHT22;3894;49.700;10.770;2022-07-04T05:32:44;19.90;99.90
7704;DHT22;3894;49.700;10.770;2022-07-04T05:35:09;20.30;99.90
7704;DHT22;3894;49.700;10.770;2022-07-04T05:37:35;20.20;99.90
7704;DHT22;3894;49.700;10.770;2022-07-04T05:40:02;20.30;99.90
7704;DHT22;3894;49.700;10.770;2022-07-04T05:42:28;20.70;99.90
7704;DHT22;3894;49.700;10.770;2022-07-04T05:44:54;21.00;99.90
7704;DHT22;3894;49.700;10.770;2022-07-04T05:47:20;21.10;99.90
7704;DHT22;3894;49.700;10.770;2022-07-04T05:49:49;21.00;99.90
7704;DHT22;3894;49.700;10.770;2022-07-04T05:52:15;21.10;99.90
7704;DHT22;3894;49.700;10.770;2022-07-04T05:54:40;21.30;99.90
7704;DHT22;3894;49.700;10.770;2022-07-04T05:57:06;21.70;99.90
7704;DHT22;3894;49.700;10.770;2022-07-04T05:59:32;21.70;99.90
7704;DHT22;3894;49.700;10.770;2022-07-04T06:01:58;21.80;99.90
7704;DHT22;3894;49.700;10.770;2022-07-04T06:04:23;22.10;99.90
7704;DHT22;3894;49.700;10.770;2022-07-04T06:06:49;22.30;99.90
7704;DHT22;3894;49.700;10.770;2022-07-04T06:09:14;22.50;99.90
7704;DHT22;3894;49.700;10.770;2022-07-04T06:11:40;22.80;99.90
7704;DHT22;3894;49.700;10.770;2022-07-04T06:14:06;22.80;99.90
7704;DHT22;3894;49.700;10.770;2022-07-04T06:16:31;22.70;99.90
7704;DHT22;3894;49.700;10.770;2022-07-04T06:18:57;22.90;99.90
7704;DHT22;3894;49.700;10.770;2022-07-04T06:21:23;23.20;99.90
7704;DHT22;3894;49.700;10.770;2022-07-04T06:23:48;23.30;99.90
7704;DHT22;3894;49.700;10.770;2022-07-04T06:26:14;23.40;99.90
7704;DHT22;3894;49.700;10.770;2022-07-04T06:28:40;23.50;99.90
7704;DHT22;3894;49.700;10.770;2022-07-04T06:31:05;23.50;99.90
7704;DHT22;3894;49.700;10.770;2022-07-04T06:33:31;23.60;99.90
7704;DHT22;3894;49.700;10.770;2022-07-04T06:35:57;22.90;99.90
7704;DHT22;3894;49.700;10.770;2022-07-04T06:38:27;22.90;99.90
7704;DHT22;3894;49.700;10.770;2022-07-04T06:40:55;23.10;99.90
7704;DHT22;3894;49.700;10.770;2022-07-04T06:43:21;23.20;99.90
7704;DHT22;3894;49.700;10.770;2022-07-04T06:45:47;23.60;99.90
7704;DHT22;3894;49.700;10.770;2022-07-04T06:48:13;23.20;99.90
7704;DHT22;3894;49.700;10.770;2022-07-04T06:50:38;23.10;99.90
7704;DHT22;3894;49.700;10.770;2022-07-04T06:53:05;23.10;99.90
7704;DHT22;3894;49.700;10.770;2022-07-04T06:55:32;23.30;99.90
7704;DHT22;3894;49.700;10.770;2022-07-04T06:57:57;23.40;99.90
7704;DHT22;3894;49.700;10.770;2022-07-04T07:00:23;22.80;99.90
7704;DHT22;3894;49.700;10.770;2022-07-04T07:02:49;22.40;99.90
7704;DHT22;3894;49.700;10.770;2022-07-04T07:05:15;22.10;99.90
7704;DHT22;3894;49.700;10.770;2022-07-04T07:07:41;22.20;99.90
7704;DHT22;3894;49.700;10.770;2022-07-04T07:10:07;22.10;99.90
7704;DHT22;3894;49.700;10.770;2022-07-04T07:12:34;22.20;99.90
7704;DHT22;3894;49.700;10.770;2022-07-04T07:15:00;22.50;99.90
7704;DHT22;3894;49.700;10.770;2022-07-04T07:17:26;23.10;99.90
7704;DHT22;3894;49.700;10.770;2022-07-04T07:19:55;23.80;99.90
7704;DHT22;3894;49.700;10.770;2022-07-04T07:22:21;24.20;99.90
7704;DHT22;3894;49.700;10.770;2022-07-04T07:24:47;23.90;99.90
7704;DHT22;3894;49.700;10.770;2022-07-04T07:27:12;23.20;99.90
7704;DHT22;3894;49.700;10.770;2022-07-04T07:29:39;23.20;99.90
7704;DHT22;3894;49.700;10.770;2022-07-04T07:32:05;22.90;99.90
7704;DHT22;3894;49.700;10.770;2022-07-04T07:34:31;22.90;99.90
7704;DHT22;3894;49.700;10.770;2022-07-04T07:36:57;23.00;99.90
7704;DHT22;3894;49.700;10.770;2022-07-04T07:39:22;23.20;99.90
7704;DHT22;3894;49.700;10.770;2022-07-04T07:41:51;23.30;99.90
7704;DHT22;3894;49.700;10.770;2022-07-04T07:44:17;23.00;99.90
7704;DHT22;3894;49.700;10.770;2022-07-04T07:46:42;23.10;99.90
7704;DHT22;3894;49.700;10.770;2022-07-04T07:49:08;22.90;99.90
7704;DHT22;3894;49.700;10.770;2022-07-04T07:51:34;22.70;99.90
7704;DHT22;3894;49.700;10.770;2022-07-04T07:53:59;22.30;99.90
7704;DHT22;3894;49.700;10.770;2022-07-04T07:56:25;22.70;99.90
7704;DHT22;3894;49.700;10.770;2022-07-04T07:58:51;23.20;99.90
7704;DHT22;3894;49.700;10.770;2022-07-04T08:01:17;23.00;99.90
7704;DHT22;3894;49.700;10.770;2022-07-04T08:03:43;23.20;99.90
7704;DHT22;3894;49.700;10.770;2022-07-04T08:06:28;23.80;99.90
7704;DHT22;3894;49.700;10.770;2022-07-04T08:08:54;24.20;99.90
7704;DHT22;3894;49.700;10.770;2022-07-04T08:11:20;24.60;99.90
7704;DHT22;3894;49.700;10.770;2022-07-04T08:13:45;24.80;99.90
7704;DHT22;3894;49.700;10.770;2022-07-04T08:16:11;25.20;99.90
7704;DHT22;3894;49.700;10.770;2022-07-04T08:18:37;25.50;99.90
7704;DHT22;3894;49.700;10.770;2022-07-04T08:21:03;24.80;99.90
7704;DHT22;3894;49.700;10.770;2022-07-04T08:23:31;24.50;99.90
7704;DHT22;3894;49.700;10.770;2022-07-04T08:25:58;24.80;99.90
7704;DHT22;3894;49.700;10.770;2022-07-04T08:28:24;25.20;99.90
7704;DHT22;3894;49.700;10.770;2022-07-04T08:30:50;25.40;99.90
7704;DHT22;3894;49.700;10.770;2022-07-04T08:33:16;25.40;99.90
7704;DHT22;3894;49.700;10.770;2022-07-04T08:35:41;25.70;99.40
7704;DHT22;3894;49.700;10.770;2022-07-04T08:38:08;25.80;99.60
7704;DHT22;3894;49.700;10.770;2022-07-04T08:40:34;25.70;99.50
7704;DHT22;3894;49.700;10.770;2022-07-04T08:43:02;25.90;99.60
7704;DHT22;3894;49.700;10.770;2022-07-04T08:45:31;26.00;99.20
7704;DHT22;3894;49.700;10.770;2022-07-04T08:48:02;26.40;98.40
7704;DHT22;3894;49.700;10.770;2022-07-04T08:50:39;26.40;97.20
7704;DHT22;3894;49.700;10.770;2022-07-04T08:53:11;25.70;97.10
7704;DHT22;3894;49.700;10.770;2022-07-04T08:55:42;25.40;97.70
7704;DHT22;3894;49.700;10.770;2022-07-04T08:58:27;25.20;97.80
7704;DHT22;3894;49.700;10.770;2022-07-04T09:01:07;25.40;98.10
7704;DHT22;3894;49.700;10.770;2022-07-04T09:03:41;25.40;98.30
7704;DHT22;3894;49.700;10.770;2022-07-04T09:06:08;25.50;97.90
7704;DHT22;3894;49.700;10.770;2022-07-04T09:08:35;25.20;96.70
7704;DHT22;3894;49.700;10.770;2022-07-04T09:11:04;24.90;96.90
7704;DHT22;3894;49.700;10.770;2022-07-04T09:13:30;25.30;96.90
7704;DHT22;3894;49.700;10.770;2022-07-04T09:15:56;25.30;96.60
7704;DHT22;3894;49.700;10.770;2022-07-04T09:20:58;25.60;96.70
7704;DHT22;3894;49.700;10.770;2022-07-04T09:23:32;25.60;96.40
7704;DHT22;3894;49.700;10.770;2022-07-04T09:26:19;25.90;95.30
7704;DHT22;3894;49.700;10.770;2022-07-04T09:28:51;25.30;95.10
7704;DHT22;3894;49.700;10.770;2022-07-04T09:31:23;25.40;95.50
7704;DHT22;3894;49.700;10.770;2022-07-04T09:33:57;25.90;94.50
7704;DHT22;3894;49.700;10.770;2022-07-04T09:36:25;25.70;92.70
7704;DHT22;3894;49.700;10.770;2022-07-04T09:41:59;25.70;94.00
7704;DHT22;3894;49.700;10.770;2022-07-04T09:44:43;25.50;91.60
7704;DHT22;3894;49.700;10.770;2022-07-04T09:47:23;25.40;92.00
7704;DHT22;3894;49.700;10.770;2022-07-04T09:50:13;25.50;93.10
7704;DHT22;3894;49.700;10.770;2022-07-04T09:52:49;25.70;93.60
7704;DHT22;3894;49.700;10.770;2022-07-04T09:55:27;26.20;93.70
7704;DHT22;3894;49.700;10.770;2022-07-04T09:57:55;26.80;93.60
7704;DHT22;3894;49.700;10.770;2022-07-04T10:00:26;27.10;90.90
7704;DHT22;3894;49.700;10.770;2022-07-04T10:02:54;27.20;91.20
7704;DHT22;3894;49.700;10.770;2022-07-04T10:05:25;26.90;91.10
7704;DHT22;3894;49.700;10.770;2022-07-04T10:07:51;26.60;90.80
7704;DHT22;3894;49.700;10.770;2022-07-04T10:10:36;27.00;92.10
7704;DHT22;3894;49.700;10.770;2022-07-04T10:13:07;26.90;91.20
7704;DHT22;3894;49.700;10.770;2022-07-04T10:15:36;26.80;90.30
7704;DHT22;3894;49.700;10.770;2022-07-04T10:18:05;26.70;91.40
7704;DHT22;3894;49.700;10.770;2022-07-04T10:20:31;27.20;90.70
7704;DHT22;3894;49.700;10.770;2022-07-04T10:22:57;27.00;90.80
7704;DHT22;3894;49.700;10.770;2022-07-04T10:25:24;26.90;90.80
7704;DHT22;3894;49.700;10.770;2022-07-04T10:27:49;26.90;89.70
7704;DHT22;3894;49.700;10.770;2022-07-04T10:30:31;27.40;90.50
7704;DHT22;3894;49.700;10.770;2022-07-04T10:33:02;27.40;88.20
7704;DHT22;3894;49.700;10.770;2022-07-04T10:38:31;26.70;88.20
7704;DHT22;3894;49.700;10.770;2022-07-04T10:48:36;26.40;88.50
7704;DHT22;3894;49.700;10.770;2022-07-04T10:51:06;26.00;88.20
7704;DHT22;3894;49.700;10.770;2022-07-04T10:53:34;26.20;88.50
7704;DHT22;3894;49.700;10.770;2022-07-04T10:58:44;26.10;87.60
7704;DHT22;3894;49.700;10.770;2022-07-04T11:01:10;25.90;89.40
7704;DHT22;3894;49.700;10.770;2022-07-04T11:03:53;25.80;90.20
7704;DHT22;3894;49.700;10.770;2022-07-04T11:09:19;26.00;90.60
7704;DHT22;3894;49.700;10.770;2022-07-04T11:11:53;26.40;90.20
7704;DHT22;3894;49.700;10.770;2022-07-04T11:14:37;26.00;90.20
7704;DHT22;3894;49.700;10.770;2022-07-04T11:17:13;26.30;89.10
7704;DHT22;3894;49.700;10.770;2022-07-04T11:19:40;26.90;87.20
7704;DHT22;3894;49.700;10.770;2022-07-04T11:22:07;28.10;88.30
7704;DHT22;3894;49.700;10.770;2022-07-04T11:24:34;28.40;82.80
7704;DHT22;3894;49.700;10.770;2022-07-04T11:27:00;28.00;82.60
7704;DHT22;3894;49.700;10.770;2022-07-04T11:29:27;27.90;81.90
7704;DHT22;3894;49.700;10.770;2022-07-04T11:31:53;27.40;84.00
7704;DHT22;3894;49.700;10.770;2022-07-04T11:34:20;26.60;86.00
7704;DHT22;3894;49.700;10.770;2022-07-04T11:36:47;26.60;86.00
7704;DHT22;3894;49.700;10.770;2022-07-04T11:39:15;26.80;86.00
7704;DHT22;3894;49.700;10.770;2022-07-04T11:41:46;26.60;87.00
7704;DHT22;3894;49.700;10.770;2022-07-04T11:44:33;27.30;85.90
7704;DHT22;3894;49.700;10.770;2022-07-04T11:47:19;28.10;83.80
7704;DHT22;3894;49.700;10.770;2022-07-04T11:49:54;28.40;83.00
7704;DHT22;3894;49.700;10.770;2022-07-04T11:54:51;28.10;80.40
7704;DHT22;3894;49.700;10.770;2022-07-04T11:57:23;28.10;81.40
7704;DHT22;3894;49.700;10.770;2022-07-04T11:59:55;28.00;82.00
7704;DHT22;3894;49.700;10.770;2022-07-04T12:02:21;27.60;82.20
7704;DHT22;3894;49.700;10.770;2022-07-04T12:04:47;27.80;81.30
7704;DHT22;3894;49.700;10.770;2022-07-04T12:07:17;27.60;81.00
7704;DHT22;3894;49.700;10.770;2022-07-04T12:09:44;27.20;80.70
7704;DHT22;3894;49.700;10.770;2022-07-04T12:12:11;27.80;83.40
7704;DHT22;3894;49.700;10.770;2022-07-04T12:14:37;28.30;79.90
7704;DHT22;3894;49.700;10.770;2022-07-04T12:17:19;28.20;79.70
7704;DHT22;3894;49.700;10.770;2022-07-04T12:19:56;27.50;80.10
7704;DHT22;3894;49.700;10.770;2022-07-04T12:22:33;27.30;81.30
7704;DHT22;3894;49.700;10.770;2022-07-04T12:25:03;27.80;79.10
7704;DHT22;3894;49.700;10.770;2022-07-04T12:27:30;28.10;79.80
7704;DHT22;3894;49.700;10.770;2022-07-04T12:29:59;28.40;78.70
7704;DHT22;3894;49.700;10.770;2022-07-04T12:32:44;27.80;78.60
7704;DHT22;3894;49.700;10.770;2022-07-04T12:35:30;28.50;78.90
7704;DHT22;3894;49.700;10.770;2022-07-04T12:38:12;28.80;78.10
7704;DHT22;3894;49.700;10.770;2022-07-04T12:40:53;29.20;79.50
7704;DHT22;3894;49.700;10.770;2022-07-04T12:43:20;29.00;74.10
7704;DHT22;3894;49.700;10.770;2022-07-04T12:45:49;28.50;75.70
7704;DHT22;3894;49.700;10.770;2022-07-04T12:48:17;28.00;76.60
7704;DHT22;3894;49.700;10.770;2022-07-04T12:50:43;27.20;77.10
7704;DHT22;3894;49.700;10.770;2022-07-04T12:53:09;27.50;77.40
7704;DHT22;3894;49.700;10.770;2022-07-04T12:55:38;27.70;75.00
7704;DHT22;3894;49.700;10.770;2022-07-04T12:58:05;27.40;75.80
7704;DHT22;3894;49.700;10.770;2022-07-04T13:00:31;27.40;77.80
7704;DHT22;3894;49.700;10.770;2022-07-04T13:02:56;27.40;77.80
7704;DHT22;3894;49.700;10.770;2022-07-04T13:05:22;27.30;77.40
7704;DHT22;3894;49.700;10.770;2022-07-04T13:07:47;27.60;77.30
7704;DHT22;3894;49.700;10.770;2022-07-04T13:10:13;28.20;77.60
7704;DHT22;3894;49.700;10.770;2022-07-04T13:12:39;28.10;75.00
7704;DHT22;3894;49.700;10.770;2022-07-04T13:15:05;28.00;76.90
7704;DHT22;3894;49.700;10.770;2022-07-04T13:17:31;28.30;76.10
7704;DHT22;3894;49.700;10.770;2022-07-04T13:19:57;28.60;76.10
7704;DHT22;3894;49.700;10.770;2022-07-04T13:22:23;29.00;74.20
7704;DHT22;3894;49.700;10.770;2022-07-04T13:24:49;29.10;74.20
7704;DHT22;3894;49.700;10.770;2022-07-04T13:27:17;28.60;74.60
7704;DHT22;3894;49.700;10.770;2022-07-04T13:29:43;28.40;73.20
7704;DHT22;3894;49.700;10.770;2022-07-04T13:32:09;28.10;74.20
7704;DHT22;3894;49.700;10.770;2022-07-04T13:34:35;28.60;75.30
7704;DHT22;3894;49.700;10.770;2022-07-04T13:37:01;29.10;73.00
7704;DHT22;3894;49.700;10.770;2022-07-04T13:39:27;28.70;72.00
7704;DHT22;3894;49.700;10.770;2022-07-04T13:41:53;28.40;72.60
7704;DHT22;3894;49.700;10.770;2022-07-04T13:44:19;28.40;72.20
7704;DHT22;3894;49.700;10.770;2022-07-04T13:46:44;28.60;71.50
7704;DHT22;3894;49.700;10.770;2022-07-04T13:49:10;28.30;70.90
7704;DHT22;3894;49.700;10.770;2022-07-04T13:51:37;28.50;73.20
7704;DHT22;3894;49.700;10.770;2022-07-04T13:54:03;28.80;70.90
7704;DHT22;3894;49.700;10.770;2022-07-04T13:56:29;28.60;70.30
7704;DHT22;3894;49.700;10.770;2022-07-04T13:58:55;28.60;69.70
7704;DHT22;3894;49.700;10.770;2022-07-04T14:01:21;28.60;70.30
7704;DHT22;3894;49.700;10.770;2022-07-04T14:03:48;28.90;70.20
7704;DHT22;3894;49.700;10.770;2022-07-04T14:06:15;28.90;69.30
7704;DHT22;3894;49.700;10.770;2022-07-04T14:08:41;28.60;70.50
7704;DHT22;3894;49.700;10.770;2022-07-04T14:11:07;28.20;69.30
7704;DHT22;3894;49.700;10.770;2022-07-04T14:13:33;28.20;68.70
7704;DHT22;3894;49.700;10.770;2022-07-04T14:15:59;28.30;69.30
7704;DHT22;3894;49.700;10.770;2022-07-04T14:18:25;28.40;69.90
7704;DHT22;3894;49.700;10.770;2022-07-04T14:20:51;28.40;67.90
7704;DHT22;3894;49.700;10.770;2022-07-04T14:23:17;28.30;68.10
7704;DHT22;3894;49.700;10.770;2022-07-04T14:26:03;28.30;67.80
7704;DHT22;3894;49.700;10.770;2022-07-04T14:28:29;28.00;67.80
7704;DHT22;3894;49.700;10.770;2022-07-04T14:30:55;28.20;66.80
7704;DHT22;3894;49.700;10.770;2022-07-04T14:33:20;28.30;65.40
7704;DHT22;3894;49.700;10.770;2022-07-04T14:35:46;28.40;67.80
7704;DHT22;3894;49.700;10.770;2022-07-04T14:38:11;28.50;64.30
7704;DHT22;3894;49.700;10.770;2022-07-04T14:40:37;28.30;64.80
7704;DHT22;3894;49.700;10.770;2022-07-04T14:43:05;28.10;64.50
7704;DHT22;3894;49.700;10.770;2022-07-04T14:45:31;28.10;64.10
7704;DHT22;3894;49.700;10.770;2022-07-04T14:47:56;28.20;63.60
7704;DHT22;3894;49.700;10.770;2022-07-04T14:50:22;28.30;63.70
7704;DHT22;3894;49.700;10.770;2022-07-04T14:52:49;28.20;64.10
7704;DHT22;3894;49.700;10.770;2022-07-04T14:55:15;28.10;63.20
7704;DHT22;3894;49.700;10.770;2022-07-04T14:57:41;28.00;63.00
7704;DHT22;3894;49.700;10.770;2022-07-04T15:00:07;28.20;64.40
7704;DHT22;3894;49.700;10.770;2022-07-04T15:02:32;28.40;65.20
7704;DHT22;3894;49.700;10.770;2022-07-04T15:04:58;28.50;64.50
7704;DHT22;3894;49.700;10.770;2022-07-04T15:07:24;28.60;64.60
7704;DHT22;3894;49.700;10.770;2022-07-04T15:09:49;28.50;64.80
7704;DHT22;3894;49.700;10.770;2022-07-04T15:12:15;28.20;64.80
7704;DHT22;3894;49.700;10.770;2022-07-04T15:14:40;28.30;64.20
7704;DHT22;3894;49.700;10.770;2022-07-04T15:17:06;28.40;62.70
7704;DHT22;3894;49.700;10.770;2022-07-04T15:19:31;28.30;62.30
7704;DHT22;3894;49.700;10.770;2022-07-04T15:22:17;28.20;63.30
7704;DHT22;3894;49.700;10.770;2022-07-04T15:25:01;28.30;61.40
7704;DHT22;3894;49.700;10.770;2022-07-04T15:27:27;28.40;61.60
7704;DHT22;3894;49.700;10.770;2022-07-04T15:29:52;28.20;60.70
7704;DHT22;3894;49.700;10.770;2022-07-04T15:32:18;28.30;62.20
7704;DHT22;3894;49.700;10.770;2022-07-04T15:34:43;28.50;64.00
7704;DHT22;3894;49.700;10.770;2022-07-04T15:37:09;28.80;61.90
7704;DHT22;3894;49.700;10.770;2022-07-04T15:39:35;29.00;61.10
7704;DHT22;3894;49.700;10.770;2022-07-04T15:42:05;28.80;60.30
7704;DHT22;3894;49.700;10.770;2022-07-04T15:44:31;28.90;60.80
7704;DHT22;3894;49.700;10.770;2022-07-04T15:46:59;28.90;60.50
7704;DHT22;3894;49.700;10.770;2022-07-04T15:49:33;28.80;60.20
7704;DHT22;3894;49.700;10.770;2022-07-04T15:51:59;28.80;60.30
7704;DHT22;3894;49.700;10.770;2022-07-04T15:54:25;28.60;60.70
7704;DHT22;3894;49.700;10.770;2022-07-04T15:56:51;28.30;60.60
7704;DHT22;3894;49.700;10.770;2022-07-04T15:59:16;28.30;61.10
7704;DHT22;3894;49.700;10.770;2022-07-04T16:01:42;28.30;59.80
7704;DHT22;3894;49.700;10.770;2022-07-04T16:04:08;28.60;60.50
7704;DHT22;3894;49.700;10.770;2022-07-04T16:06:33;29.10;59.90
7704;DHT22;3894;49.700;10.770;2022-07-04T16:08:59;29.10;59.20
7704;DHT22;3894;49.700;10.770;2022-07-04T16:11:25;29.10;57.90